Time;durP1;ratioP1;P1;durP2;ratioP2;P2;SDS_P1;SDS_P2;PMS_P1;PMS_P2;Temp;Humidity;BMP_temperature;BMP_pressure;BME280_temperature;BME280_humidity;BME280_pressure;Samples;Min_cycle;Max_cycle;Signal;HPM_P1;HPM_P2
2023/12/31 00:00:00;;;;;;;23.00;18.98;;;10.90;60.80;;;;;;349744;28;1008;-54
2023/12/31 00:00:11;;;;;;;24.08;18.88;;;10.90;60.80;;;;;;349649;28;996;-55
2023/12/31 00:00:22;;;;;;;26.05;19.33;;;10.90;60.90;;;;;;349762;28;950;-55
2023/12/31 00:00:33;;;;;;;26.27;19.25;;;10.90;60.80;;;;;;349723;28;1027;-54
2023/12/31 00:00:44;;;;;;;25.63;19.25;;;10.90;60.90;;;;;;349618;28;1162;-54
2023/12/31 00:00:54;;;;;;;23.27;18.63;;;10.90;60.90;;;;;;349739;28;1043;-54
2023/12/31 00:01:05;;;;;;;22.75;18.65;;;10.90;60.80;;;;;;349753;28;1023;-54
2023/12/31 00:01:16;;;;;;;22.70;18.60;;;10.80;60.80;;;;;;349620;28;1026;-54
2023/12/31 00:01:28;;;;;;;23.42;18.95;;;10.90;60.80;;;;;;349735;28;909;-54
2023/12/31 00:01:39;;;;;;;24.25;19.42;;;10.90;60.80;;;;;;349706;28;2027;-54
2023/12/31 00:01:50;;;;;;;24.65;19.48;;;10.90;60.80;;;;;;349666;28;1126;-56
2023/12/31 00:02:00;;;;;;;23.33;19.02;;;10.90;60.70;;;;;;349754;28;1092;-54
2023/12/31 00:02:11;;;;;;;24.00;19.38;;;10.90;60.70;;;;;;349756;28;1090;-54
2023/12/31 00:02:22;;;;;;;24.20;19.53;;;10.90;60.70;;;;;;349636;28;1032;-54
2023/12/31 00:02:33;;;;;;;24.52;19.92;;;10.90;60.70;;;;;;349720;28;870;-54
2023/12/31 00:02:43;;;;;;;23.67;19.17;;;10.90;60.70;;;;;;349769;28;838;-54
2023/12/31 00:02:54;;;;;;;22.60;18.73;;;10.90;60.70;;;;;;349671;28;992;-56
2023/12/31 00:03:05;;;;;;;23.95;19.27;;;10.90;60.70;;;;;;349686;28;1095;-56
2023/12/31 00:03:16;;;;;;;23.60;19.42;;;10.90;60.70;;;;;;349695;28;1004;-54
2023/12/31 00:03:26;;;;;;;23.50;19.10;;;10.90;60.70;;;;;;349701;28;1023;-54
2023/12/31 00:03:37;;;;;;;22.15;18.63;;;10.90;60.70;;;;;;349641;28;1671;-54
2023/12/31 00:03:48;;;;;;;22.80;18.60;;;10.90;60.80;;;;;;349706;28;1170;-54
2023/12/31 00:03:59;;;;;;;22.88;19.00;;;10.90;60.80;;;;;;349689;28;1943;-53
2023/12/31 00:04:10;;;;;;;23.65;19.08;;;10.90;60.80;;;;;;349729;28;1013;-56
2023/12/31 00:04:20;;;;;;;24.60;19.20;;;10.90;60.80;;;;;;349730;28;950;-56
2023/12/31 00:04:31;;;;;;;25.58;19.20;;;10.80;60.80;;;;;;349652;28;900;-55
2023/12/31 00:04:42;;;;;;;23.73;18.83;;;10.90;60.80;;;;;;349751;28;1040;-55
2023/12/31 00:04:53;;;;;;;22.58;18.85;;;10.90;60.80;;;;;;349744;28;1027;-55
2023/12/31 00:05:05;;;;;;;22.55;18.70;;;10.80;60.80;;;;;;349710;28;918;-55
2023/12/31 00:05:15;;;;;;;22.63;18.88;;;10.90;60.80;;;;;;349697;28;1121;-55
2023/12/31 00:05:27;;;;;;;21.60;18.45;;;10.80;60.80;;;;;;349714;28;1133;-55
2023/12/31 00:05:37;;;;;;;21.70;18.23;;;10.80;60.80;;;;;;349603;28;1055;-54
2023/12/31 00:05:48;;;;;;;22.73;18.73;;;10.90;60.80;;;;;;349674;28;2032;-54
2023/12/31 00:05:59;;;;;;;23.53;19.27;;;10.80;60.80;;;;;;349750;28;1931;-54
2023/12/31 00:06:10;;;;;;;24.05;19.42;;;10.90;60.80;;;;;;349681;28;1035;-55
2023/12/31 00:06:21;;;;;;;23.75;18.98;;;10.90;60.80;;;;;;349666;28;1773;-53
2023/12/31 00:06:32;;;;;;;24.08;19.25;;;10.90;60.80;;;;;;349698;28;1011;-54
2023/12/31 00:06:43;;;;;;;22.90;18.93;;;10.80;60.80;;;;;;349740;28;833;-54
2023/12/31 00:06:53;;;;;;;22.17;18.92;;;10.80;60.90;;;;;;349707;28;996;-54
2023/12/31 00:07:04;;;;;;;22.55;19.17;;;10.90;60.80;;;;;;349625;28;1429;-54
2023/12/31 00:07:15;;;;;;;23.58;19.33;;;10.90;60.90;;;;;;349646;28;1529;-55
2023/12/31 00:07:29;;;;;;;23.13;19.23;;;10.80;60.90;;;;;;349653;28;2096;-54
2023/12/31 00:07:39;;;;;;;22.45;18.90;;;10.90;60.90;;;;;;349629;28;1017;-54
2023/12/31 00:07:50;;;;;;;22.20;18.65;;;10.90;60.90;;;;;;349713;28;1388;-55
2023/12/31 00:08:01;;;;;;;23.08;19.02;;;10.80;60.90;;;;;;349746;28;1592;-55
2023/12/31 00:08:13;;;;;;;23.25;19.23;;;10.80;60.90;;;;;;349688;28;1029;-55
2023/12/31 00:08:24;;;;;;;23.70;19.58;;;10.90;60.90;;;;;;349652;28;1052;-54
2023/12/31 00:08:35;;;;;;;23.33;19.45;;;10.80;60.90;;;;;;349715;28;984;-57
2023/12/31 00:08:46;;;;;;;23.60;19.20;;;10.80;60.90;;;;;;349750;28;863;-55
2023/12/31 00:08:56;;;;;;;24.98;19.38;;;10.90;60.90;;;;;;349759;28;1016;-56
2023/12/31 00:09:07;;;;;;;25.53;19.87;;;10.90;60.90;;;;;;349622;28;1016;-55
2023/12/31 00:09:18;;;;;;;25.80;20.17;;;10.90;60.90;;;;;;349704;28;992;-55
2023/12/31 00:09:28;;;;;;;24.50;19.35;;;10.90;60.90;;;;;;349706;28;908;-54
2023/12/31 00:09:39;;;;;;;23.92;19.30;;;10.90;61.00;;;;;;349721;28;1350;-55
2023/12/31 00:09:50;;;;;;;25.10;19.77;;;10.80;61.00;;;;;;349657;28;1020;-54
2023/12/31 00:10:02;;;;;;;23.83;19.40;;;10.90;61.00;;;;;;349747;28;877;-54
2023/12/31 00:10:13;;;;;;;22.50;18.85;;;10.80;61.00;;;;;;349684;28;857;-56
2023/12/31 00:10:24;;;;;;;21.80;18.23;;;10.90;61.00;;;;;;349682;28;1068;-57
2023/12/31 00:10:35;;;;;;;22.05;18.23;;;10.80;61.00;;;;;;349560;28;1060;-54
2023/12/31 00:10:45;;;;;;;22.98;18.50;;;10.80;61.00;;;;;;349758;28;925;-54
2023/12/31 00:10:56;;;;;;;22.90;18.65;;;10.90;61.00;;;;;;349690;28;1107;-54
2023/12/31 00:11:09;;;;;;;23.80;19.38;;;10.80;61.00;;;;;;349705;28;916;-55
2023/12/31 00:11:21;;;;;;;24.76;19.64;;;10.90;61.10;;;;;;349602;28;1132;-55
2023/12/31 00:11:32;;;;;;;24.08;18.63;;;10.90;61.20;;;;;;349731;28;1012;-55
2023/12/31 00:11:42;;;;;;;22.40;18.27;;;10.90;61.10;;;;;;349740;28;814;-55
2023/12/31 00:11:53;;;;;;;24.13;18.27;;;10.90;61.10;;;;;;349716;28;1821;-54
2023/12/31 00:12:04;;;;;;;24.80;18.75;;;10.90;61.10;;;;;;349622;28;966;-56
2023/12/31 00:12:15;;;;;;;23.73;18.33;;;10.90;61.00;;;;;;349712;28;1000;-53
2023/12/31 00:12:26;;;;;;;22.30;18.17;;;10.90;61.00;;;;;;349732;28;922;-55
2023/12/31 00:12:37;;;;;;;21.88;17.85;;;10.80;61.10;;;;;;349701;28;2605;-55
2023/12/31 00:12:48;;;;;;;21.90;17.98;;;10.80;61.00;;;;;;349611;28;2060;-55
2023/12/31 00:12:58;;;;;;;22.25;17.73;;;10.90;61.00;;;;;;349655;28;1927;-55
2023/12/31 00:13:09;;;;;;;21.98;17.60;;;10.90;60.90;;;;;;349676;28;1108;-55
2023/12/31 00:13:20;;;;;;;22.30;17.90;;;10.90;60.80;;;;;;349731;28;861;-55
2023/12/31 00:13:31;;;;;;;21.60;17.87;;;10.90;60.70;;;;;;349675;28;922;-55
2023/12/31 00:13:41;;;;;;;23.25;18.08;;;10.90;60.70;;;;;;349706;28;878;-54
2023/12/31 00:13:52;;;;;;;22.38;17.58;;;10.80;60.80;;;;;;349636;28;1414;-55
2023/12/31 00:14:03;;;;;;;22.23;17.17;;;10.90;60.80;;;;;;349735;28;1055;-56
2023/12/31 00:14:14;;;;;;;21.20;17.27;;;10.90;60.80;;;;;;349616;28;918;-54
2023/12/31 00:14:25;;;;;;;21.08;17.63;;;10.90;60.80;;;;;;349693;28;1067;-55
2023/12/31 00:14:37;;;;;;;23.77;18.43;;;10.90;60.90;;;;;;349682;28;1143;-56
2023/12/31 00:14:48;;;;;;;23.80;18.58;;;10.90;60.90;;;;;;349705;28;1618;-54
2023/12/31 00:14:59;;;;;;;23.67;18.70;;;10.90;61.00;;;;;;349623;28;1096;-56
2023/12/31 00:15:10;;;;;;;21.97;18.33;;;10.90;61.00;;;;;;349684;28;1154;-56
2023/12/31 00:15:20;;;;;;;22.75;18.42;;;10.90;61.00;;;;;;349757;28;969;-58
2023/12/31 00:15:31;;;;;;;23.10;18.73;;;10.90;61.00;;;;;;349732;28;913;-57
2023/12/31 00:15:42;;;;;;;23.00;18.75;;;10.90;61.00;;;;;;349599;28;1236;-57
2023/12/31 00:15:53;;;;;;;22.88;18.52;;;10.90;61.10;;;;;;349715;28;1047;-56
2023/12/31 00:16:04;;;;;;;23.48;18.42;;;10.90;61.10;;;;;;349706;28;1079;-58
2023/12/31 00:16:15;;;;;;;23.00;18.38;;;10.90;61.10;;;;;;349748;28;993;-55
2023/12/31 00:16:26;;;;;;;22.05;18.00;;;11.00;61.10;;;;;;349645;28;997;-55
2023/12/31 00:16:37;;;;;;;22.65;18.42;;;10.90;61.00;;;;;;349669;28;1492;-56
2023/12/31 00:16:48;;;;;;;24.00;18.50;;;11.00;61.00;;;;;;349700;28;1036;-56
2023/12/31 00:16:59;;;;;;;23.52;18.42;;;10.90;60.90;;;;;;349678;28;1935;-55
2023/12/31 00:17:10;;;;;;;22.65;17.92;;;10.90;60.90;;;;;;349615;28;1020;-55
2023/12/31 00:17:20;;;;;;;22.75;18.05;;;10.90;60.90;;;;;;349654;28;1024;-55
2023/12/31 00:17:31;;;;;;;21.95;17.80;;;10.90;60.80;;;;;;349673;28;1099;-55
2023/12/31 00:17:42;;;;;;;22.10;17.83;;;11.00;60.80;;;;;;349746;28;838;-55
2023/12/31 00:17:53;;;;;;;21.48;18.10;;;10.90;60.80;;;;;;349609;28;1108;-55
2023/12/31 00:18:04;;;;;;;22.50;18.65;;;10.90;60.80;;;;;;349720;28;1199;-57
2023/12/31 00:18:14;;;;;;;24.38;18.85;;;10.90;60.80;;;;;;349712;28;1210;-54
2023/12/31 00:18:25;;;;;;;24.75;18.42;;;10.90;60.70;;;;;;349689;28;1055;-56
2023/12/31 00:18:36;;;;;;;23.75;18.45;;;10.90;60.80;;;;;;349618;28;1067;-56
2023/12/31 00:18:47;;;;;;;23.95;18.80;;;10.90;60.70;;;;;;349672;28;965;-56
2023/12/31 00:18:57;;;;;;;23.50;18.87;;;10.90;60.70;;;;;;349699;28;1007;-58
2023/12/31 00:19:08;;;;;;;24.58;19.08;;;10.90;60.80;;;;;;349646;28;1096;-56
2023/12/31 00:19:19;;;;;;;24.55;19.13;;;10.90;60.80;;;;;;349651;28;893;-55
2023/12/31 00:19:30;;;;;;;26.45;19.40;;;10.90;60.90;;;;;;349724;28;912;-55
2023/12/31 00:19:40;;;;;;;25.52;19.15;;;10.90;60.80;;;;;;349737;28;988;-55
2023/12/31 00:19:51;;;;;;;23.67;18.60;;;10.90;60.80;;;;;;349703;28;838;-55
2023/12/31 00:20:03;;;;;;;22.33;18.50;;;11.00;60.90;;;;;;349578;28;1171;-55
2023/12/31 00:20:14;;;;;;;21.67;18.42;;;10.90;60.90;;;;;;349778;28;898;-54
2023/12/31 00:20:25;;;;;;;22.80;18.45;;;10.90;60.90;;;;;;349712;28;1024;-55
2023/12/31 00:20:36;;;;;;;22.38;17.92;;;10.90;60.90;;;;;;349744;28;982;-55
2023/12/31 00:20:47;;;;;;;22.93;18.10;;;10.90;60.80;;;;;;349635;28;898;-55
2023/12/31 00:20:58;;;;;;;21.53;17.83;;;10.90;60.80;;;;;;349629;28;853;-55
2023/12/31 00:21:08;;;;;;;21.88;18.17;;;10.90;60.80;;;;;;349732;28;933;-56
2023/12/31 00:21:19;;;;;;;21.88;17.65;;;10.90;60.80;;;;;;349657;28;1167;-55
2023/12/31 00:21:30;;;;;;;22.42;18.00;;;10.90;60.70;;;;;;349663;28;1362;-55
2023/12/31 00:21:42;;;;;;;21.80;17.60;;;10.90;60.70;;;;;;349677;28;1016;-56
2023/12/31 00:21:53;;;;;;;23.02;18.25;;;10.90;60.60;;;;;;349739;28;1070;-54
2023/12/31 00:22:03;;;;;;;22.58;18.15;;;10.90;60.50;;;;;;349741;28;899;-54
2023/12/31 00:22:14;;;;;;;22.25;18.52;;;10.90;60.50;;;;;;349654;28;1871;-56
2023/12/31 00:22:25;;;;;;;21.58;17.83;;;10.90;60.50;;;;;;349709;28;984;-54
2023/12/31 00:22:36;;;;;;;21.83;17.77;;;10.90;60.50;;;;;;349717;28;833;-54
2023/12/31 00:22:46;;;;;;;22.23;18.20;;;10.90;60.50;;;;;;349718;28;1095;-55
2023/12/31 00:22:57;;;;;;;22.23;18.70;;;10.90;60.40;;;;;;349626;28;1060;-54
2023/12/31 00:23:11;;;;;;;21.88;18.42;;;10.90;60.40;;;;;;349616;28;1389;-55
2023/12/31 00:23:22;;;;;;;22.13;17.50;;;10.90;60.40;;;;;;349704;28;1039;-55
2023/12/31 00:23:33;;;;;;;22.58;17.98;;;10.90;60.40;;;;;;349690;28;1103;-54
2023/12/31 00:23:44;;;;;;;22.42;18.38;;;10.90;60.40;;;;;;349594;28;1000;-55
2023/12/31 00:23:55;;;;;;;21.88;18.35;;;10.90;60.40;;;;;;349674;28;1362;-55
2023/12/31 00:24:06;;;;;;;20.90;18.10;;;10.90;60.40;;;;;;349680;28;897;-55
2023/12/31 00:24:17;;;;;;;21.85;18.10;;;10.90;60.40;;;;;;349663;28;1207;-54
2023/12/31 00:24:27;;;;;;;22.42;18.08;;;10.90;60.40;;;;;;349566;28;1062;-55
2023/12/31 00:24:38;;;;;;;22.95;17.85;;;10.90;60.40;;;;;;349749;28;877;-54
2023/12/31 00:24:53;;;;;;;21.60;17.53;;;10.90;60.40;;;;;;349656;28;1100;-54
2023/12/31 00:25:05;;;;;;;21.50;17.33;;;10.90;60.40;;;;;;349566;28;1488;-55
2023/12/31 00:25:16;;;;;;;21.77;17.05;;;10.90;60.40;;;;;;349559;28;1637;-55
2023/12/31 00:25:27;;;;;;;20.13;16.67;;;10.90;60.40;;;;;;349708;28;1135;-55
2023/12/31 00:25:38;;;;;;;20.30;17.13;;;10.90;60.40;;;;;;349670;28;1098;-55
2023/12/31 00:25:49;;;;;;;20.90;17.70;;;10.90;60.40;;;;;;349697;28;1580;-55
2023/12/31 00:26:00;;;;;;;22.40;17.97;;;10.90;60.40;;;;;;349547;28;2220;-54
2023/12/31 00:26:11;;;;;;;23.20;17.88;;;10.90;60.40;;;;;;349675;28;1041;-54
2023/12/31 00:26:21;;;;;;;22.25;17.73;;;10.90;60.40;;;;;;349654;28;1032;-55
2023/12/31 00:26:32;;;;;;;21.33;17.63;;;10.90;60.40;;;;;;349726;28;1087;-55
2023/12/31 00:26:43;;;;;;;20.77;17.70;;;10.90;60.30;;;;;;349608;28;1051;-55
2023/12/31 00:26:53;;;;;;;20.88;17.83;;;10.90;60.40;;;;;;349698;28;980;-56
2023/12/31 00:27:04;;;;;;;21.42;17.67;;;10.90;60.40;;;;;;349670;28;1035;-54
2023/12/31 00:27:15;;;;;;;21.10;17.63;;;10.90;60.40;;;;;;349741;28;853;-55
2023/12/31 00:27:26;;;;;;;21.45;17.52;;;10.90;60.30;;;;;;349618;28;906;-54
2023/12/31 00:27:38;;;;;;;21.42;17.96;;;10.90;60.30;;;;;;349695;28;1123;-53
2023/12/31 00:27:49;;;;;;;21.02;17.50;;;10.90;60.30;;;;;;349697;28;898;-56
2023/12/31 00:28:00;;;;;;;21.55;17.48;;;10.90;60.20;;;;;;349709;28;992;-54
2023/12/31 00:28:11;;;;;;;21.48;17.17;;;10.90;60.20;;;;;;349598;28;972;-56
2023/12/31 00:28:21;;;;;;;21.55;17.65;;;10.90;60.20;;;;;;349735;28;854;-56
2023/12/31 00:28:32;;;;;;;20.45;17.45;;;10.90;60.20;;;;;;349732;28;850;-56
2023/12/31 00:28:43;;;;;;;20.40;17.30;;;11.00;60.20;;;;;;349671;28;1171;-54
2023/12/31 00:28:54;;;;;;;20.63;17.47;;;11.00;60.20;;;;;;349594;28;1361;-54
2023/12/31 00:29:05;;;;;;;20.70;17.58;;;10.90;60.20;;;;;;349648;28;1040;-54
2023/12/31 00:29:16;;;;;;;22.17;18.50;;;10.90;60.10;;;;;;349708;28;1056;-54
2023/12/31 00:29:29;;;;;;;21.55;18.48;;;11.00;60.10;;;;;;349656;28;1556;-55
2023/12/31 00:29:40;;;;;;;20.77;18.42;;;10.90;60.10;;;;;;349592;28;961;-55
2023/12/31 00:29:51;;;;;;;21.20;18.33;;;10.90;60.10;;;;;;349628;28;1000;-54
2023/12/31 00:30:02;;;;;;;21.40;18.30;;;11.00;60.10;;;;;;349691;28;1233;-54
2023/12/31 00:30:13;;;;;;;21.63;18.58;;;10.90;60.10;;;;;;349725;28;972;-55
2023/12/31 00:30:24;;;;;;;21.65;18.77;;;10.90;60.10;;;;;;349608;28;1071;-55
2023/12/31 00:30:35;;;;;;;23.02;19.35;;;11.00;60.10;;;;;;349678;28;912;-54
2023/12/31 00:30:45;;;;;;;22.48;18.70;;;10.90;60.10;;;;;;349714;28;961;-54
2023/12/31 00:30:56;;;;;;;21.67;18.27;;;10.90;60.10;;;;;;349562;28;1413;-53
2023/12/31 00:31:07;;;;;;;20.80;17.58;;;10.90;60.10;;;;;;349649;28;977;-54
2023/12/31 00:31:18;;;;;;;21.50;18.10;;;11.00;60.10;;;;;;349736;28;981;-55
2023/12/31 00:31:29;;;;;;;23.02;18.20;;;10.90;60.10;;;;;;349599;28;1004;-55
2023/12/31 00:31:39;;;;;;;22.65;18.20;;;10.90;60.10;;;;;;349744;28;838;-54
2023/12/31 00:31:50;;;;;;;22.70;17.92;;;10.90;60.10;;;;;;349712;28;834;-54
2023/12/31 00:32:01;;;;;;;21.40;17.88;;;10.90;60.10;;;;;;349610;28;1219;-54
2023/12/31 00:32:12;;;;;;;21.17;17.70;;;10.90;60.10;;;;;;349645;28;1123;-54
2023/12/31 00:32:23;;;;;;;21.42;17.90;;;11.00;60.10;;;;;;349709;28;973;-53
2023/12/31 00:32:34;;;;;;;21.45;17.75;;;11.00;60.10;;;;;;349580;28;1020;-55
2023/12/31 00:32:45;;;;;;;21.65;17.90;;;10.90;60.10;;;;;;349661;28;1120;-54
2023/12/31 00:32:55;;;;;;;21.58;17.65;;;11.00;60.20;;;;;;349737;28;980;-54
2023/12/31 00:33:06;;;;;;;21.75;17.55;;;11.00;60.30;;;;;;349618;28;1186;-54
2023/12/31 00:33:17;;;;;;;20.58;17.40;;;11.00;60.30;;;;;;349666;28;1075;-54
2023/12/31 00:33:28;;;;;;;20.83;17.80;;;11.00;60.40;;;;;;349720;28;1781;-54
2023/12/31 00:33:38;;;;;;;21.00;17.85;;;11.00;60.40;;;;;;349544;28;1557;-54
2023/12/31 00:33:56;;;;;;;21.85;17.75;;;11.00;60.40;;;;;;349711;28;1016;-57
2023/12/31 00:34:08;;;;;;;22.85;18.20;;;11.00;60.40;;;;;;349530;28;1127;-55
2023/12/31 00:34:19;;;;;;;21.98;17.90;;;11.00;60.40;;;;;;349652;28;1618;-55
2023/12/31 00:34:30;;;;;;;21.70;18.17;;;11.00;60.50;;;;;;349717;28;1021;-56
2023/12/31 00:34:40;;;;;;;23.05;18.15;;;11.00;60.50;;;;;;349626;28;1143;-54
2023/12/31 00:34:51;;;;;;;24.20;18.27;;;10.90;60.50;;;;;;349699;28;888;-54
2023/12/31 00:35:02;;;;;;;23.65;17.80;;;11.00;60.50;;;;;;349704;28;1040;-55
2023/12/31 00:35:13;;;;;;;20.67;16.80;;;11.00;60.40;;;;;;349576;28;1067;-57
2023/12/31 00:35:24;;;;;;;19.47;16.57;;;11.00;60.30;;;;;;349672;28;1048;-54
2023/12/31 00:35:35;;;;;;;20.60;16.93;;;11.00;60.20;;;;;;349608;28;1102;-55
2023/12/31 00:35:46;;;;;;;21.75;17.38;;;11.00;60.20;;;;;;349610;28;1040;-55
2023/12/31 00:35:56;;;;;;;21.27;17.33;;;11.00;60.20;;;;;;349621;28;1108;-55
2023/12/31 00:36:07;;;;;;;20.50;17.33;;;11.00;60.20;;;;;;349656;28;1056;-55
2023/12/31 00:36:18;;;;;;;21.58;18.10;;;11.00;60.20;;;;;;349603;28;1108;-53
2023/12/31 00:36:29;;;;;;;23.20;18.73;;;11.00;60.30;;;;;;349687;28;1079;-54
2023/12/31 00:36:39;;;;;;;22.90;18.52;;;11.00;60.30;;;;;;349629;28;1419;-53
2023/12/31 00:36:50;;;;;;;22.75;18.02;;;11.00;60.40;;;;;;349522;28;1910;-55
2023/12/31 00:37:02;;;;;;;21.27;17.40;;;11.00;60.40;;;;;;349648;28;1170;-55
2023/12/31 00:37:12;;;;;;;20.95;17.05;;;11.00;60.40;;;;;;349714;28;1047;-54
2023/12/31 00:37:23;;;;;;;22.08;17.17;;;11.00;60.40;;;;;;349612;28;914;-55
2023/12/31 00:37:34;;;;;;;21.25;16.85;;;11.00;60.40;;;;;;349726;28;984;-55
2023/12/31 00:37:45;;;;;;;20.60;16.77;;;11.00;60.40;;;;;;349656;28;1107;-58
2023/12/31 00:37:55;;;;;;;20.00;17.10;;;11.00;60.40;;;;;;349635;28;903;-55
2023/12/31 00:38:06;;;;;;;21.47;17.73;;;10.90;60.40;;;;;;349667;28;1043;-55
2023/12/31 00:38:17;;;;;;;22.70;18.02;;;11.00;60.40;;;;;;349711;28;1047;-55
2023/12/31 00:38:28;;;;;;;23.42;17.88;;;11.00;60.30;;;;;;349663;28;899;-54
2023/12/31 00:38:39;;;;;;;22.35;17.17;;;11.00;60.30;;;;;;349744;28;897;-54
2023/12/31 00:38:49;;;;;;;21.90;16.83;;;11.00;60.30;;;;;;349634;28;1152;-54
2023/12/31 00:39:00;;;;;;;21.88;16.88;;;11.00;60.30;;;;;;349625;28;1008;-55
2023/12/31 00:39:11;;;;;;;21.27;16.87;;;11.00;60.30;;;;;;349676;28;996;-54
2023/12/31 00:39:22;;;;;;;23.58;16.77;;;11.00;60.30;;;;;;349683;28;877;-55
2023/12/31 00:39:33;;;;;;;22.38;16.48;;;11.00;60.30;;;;;;349554;28;1072;-54
2023/12/31 00:39:43;;;;;;;22.20;16.17;;;11.00;60.30;;;;;;349668;28;1024;-55
2023/12/31 00:39:54;;;;;;;19.75;16.02;;;11.00;60.30;;;;;;349629;28;1509;-54
2023/12/31 00:40:06;;;;;;;20.80;16.02;;;11.00;60.30;;;;;;349615;28;1045;-56
2023/12/31 00:40:17;;;;;;;20.80;16.42;;;11.00;60.30;;;;;;349680;28;1060;-54
2023/12/31 00:40:28;;;;;;;20.98;16.42;;;11.00;60.20;;;;;;349646;28;1079;-54
2023/12/31 00:40:39;;;;;;;19.98;16.50;;;11.00;60.20;;;;;;349535;28;1024;-55
2023/12/31 00:40:49;;;;;;;20.30;16.40;;;11.00;60.20;;;;;;349677;28;973;-55
2023/12/31 00:41:00;;;;;;;20.13;16.75;;;11.00;60.20;;;;;;349695;28;985;-54
2023/12/31 00:41:11;;;;;;;19.33;16.65;;;11.00;60.30;;;;;;349606;28;928;-54
2023/12/31 00:41:22;;;;;;;19.08;16.25;;;11.00;60.30;;;;;;349683;28;953;-55
2023/12/31 00:41:33;;;;;;;19.92;15.93;;;11.00;60.40;;;;;;349700;28;964;-55
2023/12/31 00:41:43;;;;;;;21.45;16.27;;;11.00;60.30;;;;;;349506;28;1271;-54
2023/12/31 00:41:54;;;;;;;21.27;16.77;;;11.00;60.30;;;;;;349699;28;1040;-55
2023/12/31 00:42:05;;;;;;;21.45;16.67;;;11.00;60.20;;;;;;349647;28;1303;-55
2023/12/31 00:42:16;;;;;;;19.92;16.20;;;11.00;60.20;;;;;;349620;28;995;-54
2023/12/31 00:42:27;;;;;;;21.13;16.23;;;11.00;60.30;;;;;;349712;28;1054;-54
2023/12/31 00:42:39;;;;;;;20.07;16.23;;;11.00;60.30;;;;;;349680;28;1044;-54
2023/12/31 00:42:50;;;;;;;19.25;16.27;;;11.00;60.30;;;;;;349605;28;988;-54
2023/12/31 00:43:01;;;;;;;19.00;16.17;;;11.00;60.30;;;;;;349681;28;970;-54
2023/12/31 00:43:11;;;;;;;19.83;16.05;;;11.10;60.20;;;;;;349603;28;1447;-54
2023/12/31 00:43:22;;;;;;;20.30;15.85;;;11.00;60.20;;;;;;349608;28;996;-55
2023/12/31 00:43:33;;;;;;;20.57;15.87;;;11.00;60.20;;;;;;349721;28;869;-55
2023/12/31 00:43:44;;;;;;;21.33;16.13;;;11.00;60.20;;;;;;349729;28;869;-54
2023/12/31 00:43:54;;;;;;;21.83;16.55;;;11.00;60.20;;;;;;349543;28;1085;-53
2023/12/31 00:44:05;;;;;;;22.33;16.95;;;11.10;60.20;;;;;;349679;28;1016;-55
2023/12/31 00:44:16;;;;;;;20.75;16.67;;;11.10;60.10;;;;;;349674;28;992;-54
2023/12/31 00:44:27;;;;;;;19.52;16.13;;;11.10;60.00;;;;;;349502;28;968;-54
2023/12/31 00:44:38;;;;;;;18.60;15.45;;;11.10;59.80;;;;;;349621;28;1076;-53
2023/12/31 00:44:48;;;;;;;18.00;15.07;;;11.10;59.70;;;;;;349684;28;1007;-54
2023/12/31 00:44:59;;;;;;;17.98;14.80;;;11.10;59.70;;;;;;349586;28;1068;-54
2023/12/31 00:45:10;;;;;;;17.48;14.73;;;11.10;59.70;;;;;;349672;28;891;-54
2023/12/31 00:45:21;;;;;;;18.65;15.18;;;11.00;59.70;;;;;;349714;28;834;-53
2023/12/31 00:45:31;;;;;;;18.92;15.50;;;11.00;59.70;;;;;;349598;28;1120;-54
2023/12/31 00:45:42;;;;;;;19.20;15.60;;;11.00;59.70;;;;;;349700;28;834;-54
2023/12/31 00:45:53;;;;;;;17.95;15.38;;;11.00;59.70;;;;;;349557;28;1100;-55
2023/12/31 00:46:04;;;;;;;17.83;14.88;;;11.00;59.60;;;;;;349707;28;1127;-54
2023/12/31 00:46:15;;;;;;;18.92;15.32;;;11.00;59.60;;;;;;349590;28;1057;-53
2023/12/31 00:46:25;;;;;;;19.75;15.80;;;11.00;59.60;;;;;;349683;28;1047;-55
2023/12/31 00:46:36;;;;;;;20.80;16.13;;;11.00;59.60;;;;;;349600;28;992;-53
2023/12/31 00:46:47;;;;;;;20.30;15.43;;;11.00;59.60;;;;;;349659;28;1063;-55
2023/12/31 00:46:58;;;;;;;19.83;15.20;;;11.00;59.60;;;;;;349598;28;1087;-55
2023/12/31 00:47:09;;;;;;;17.67;14.60;;;11.00;59.60;;;;;;349695;28;1604;-55
2023/12/31 00:47:20;;;;;;;17.63;14.67;;;11.00;59.60;;;;;;349579;28;2460;-54
2023/12/31 00:47:31;;;;;;;18.88;14.98;;;11.00;59.70;;;;;;349741;28;909;-56
2023/12/31 00:47:41;;;;;;;19.75;15.38;;;11.10;59.60;;;;;;349588;28;1007;-54
2023/12/31 00:47:52;;;;;;;19.67;15.30;;;11.00;59.60;;;;;;349685;28;1047;-54
2023/12/31 00:48:03;;;;;;;19.25;14.93;;;11.00;59.70;;;;;;349622;28;968;-54
2023/12/31 00:48:14;;;;;;;18.95;14.85;;;11.00;59.70;;;;;;349690;28;945;-53
2023/12/31 00:48:25;;;;;;;18.00;14.63;;;11.00;59.70;;;;;;349637;28;914;-54
2023/12/31 00:48:35;;;;;;;18.83;14.93;;;11.00;59.70;;;;;;349646;28;968;-56
2023/12/31 00:48:46;;;;;;;18.95;15.05;;;11.00;59.60;;;;;;349600;28;1047;-54
2023/12/31 00:48:57;;;;;;;19.80;15.07;;;11.00;59.60;;;;;;349703;28;1333;-53
2023/12/31 00:49:08;;;;;;;18.77;14.70;;;11.10;59.60;;;;;;349582;28;1159;-54
2023/12/31 00:49:18;;;;;;;18.07;14.60;;;11.00;59.70;;;;;;349694;28;854;-54
2023/12/31 00:49:29;;;;;;;17.42;14.80;;;11.00;59.70;;;;;;349472;28;1225;-54
2023/12/31 00:49:40;;;;;;;17.65;14.90;;;11.00;59.70;;;;;;349637;28;1651;-54
2023/12/31 00:49:51;;;;;;;18.35;15.43;;;11.00;59.70;;;;;;349567;28;1048;-53
2023/12/31 00:50:02;;;;;;;18.38;15.20;;;11.00;59.80;;;;;;349697;28;906;-55
2023/12/31 00:50:13;;;;;;;17.67;15.00;;;11.00;59.70;;;;;;349530;28;1025;-53
2023/12/31 00:50:24;;;;;;;18.17;14.38;;;11.00;59.70;;;;;;349643;28;1153;-54
2023/12/31 00:50:34;;;;;;;18.23;14.40;;;11.00;59.70;;;;;;349545;28;1158;-54
2023/12/31 00:50:45;;;;;;;18.88;14.50;;;11.00;59.70;;;;;;349671;28;1024;-54
2023/12/31 00:50:56;;;;;;;18.63;14.70;;;11.00;59.70;;;;;;349596;28;996;-54
2023/12/31 00:51:07;;;;;;;18.77;14.75;;;11.00;59.70;;;;;;349608;28;1534;-54
2023/12/31 00:51:17;;;;;;;17.58;14.25;;;11.00;59.70;;;;;;349661;28;993;-54
2023/12/31 00:51:28;;;;;;;17.42;14.18;;;11.00;59.70;;;;;;349633;28;1241;-53
2023/12/31 00:51:39;;;;;;;18.33;14.10;;;11.00;59.70;;;;;;349557;28;1485;-53
2023/12/31 00:51:50;;;;;;;18.00;13.98;;;11.00;59.70;;;;;;349701;28;937;-54
2023/12/31 00:52:02;;;;;;;18.50;13.50;;;11.00;59.60;;;;;;349710;28;997;-54
2023/12/31 00:52:12;;;;;;;18.08;13.50;;;11.00;59.60;;;;;;349684;28;850;-54
2023/12/31 00:52:23;;;;;;;18.98;14.50;;;11.00;59.50;;;;;;349545;28;1079;-53
2023/12/31 00:52:34;;;;;;;18.20;14.73;;;11.00;59.50;;;;;;349687;28;1039;-54
2023/12/31 00:52:44;;;;;;;18.20;14.70;;;11.00;59.50;;;;;;349633;28;1610;-54
2023/12/31 00:52:55;;;;;;;18.23;14.05;;;11.00;59.50;;;;;;349669;28;969;-55
2023/12/31 00:53:06;;;;;;;17.48;13.63;;;11.00;59.50;;;;;;349555;28;1096;-54
2023/12/31 00:53:17;;;;;;;17.17;13.57;;;11.00;59.50;;;;;;349648;28;1032;-53
2023/12/31 00:53:28;;;;;;;18.00;14.00;;;11.00;59.50;;;;;;349712;28;909;-53
2023/12/31 00:53:38;;;;;;;17.95;13.50;;;11.00;59.50;;;;;;349638;28;1976;-54
2023/12/31 00:53:49;;;;;;;16.90;13.43;;;11.00;59.60;;;;;;349566;28;1301;-54
2023/12/31 00:54:00;;;;;;;16.48;13.10;;;10.90;59.60;;;;;;349694;28;977;-53
2023/12/31 00:54:11;;;;;;;17.25;13.75;;;10.90;59.50;;;;;;349585;28;1414;-54
2023/12/31 00:54:21;;;;;;;17.75;13.85;;;11.00;59.60;;;;;;349680;28;885;-54
2023/12/31 00:54:32;;;;;;;17.05;13.57;;;11.00;59.60;;;;;;349530;28;1127;-54
2023/12/31 00:54:43;;;;;;;17.10;13.27;;;11.00;59.70;;;;;;349626;28;1099;-54
2023/12/31 00:54:54;;;;;;;17.25;13.27;;;11.00;59.70;;;;;;349630;28;1119;-54
2023/12/31 00:55:05;;;;;;;17.05;13.20;;;11.00;59.80;;;;;;349668;28;1091;-53
2023/12/31 00:55:16;;;;;;;17.02;13.68;;;10.90;59.80;;;;;;349481;28;2130;-54
2023/12/31 00:55:26;;;;;;;16.58;13.55;;;10.90;59.80;;;;;;349630;28;1048;-53
2023/12/31 00:55:38;;;;;;;15.93;13.30;;;10.90;59.90;;;;;;349627;28;1979;-53
2023/12/31 00:55:49;;;;;;;15.13;12.85;;;11.00;59.90;;;;;;349655;28;1052;-55
2023/12/31 00:56:00;;;;;;;15.73;12.77;;;11.00;59.80;;;;;;349595;28;1090;-54
2023/12/31 00:56:10;;;;;;;16.50;13.13;;;11.00;59.80;;;;;;349621;28;1239;-55
2023/12/31 00:56:21;;;;;;;17.65;13.65;;;11.00;59.80;;;;;;349672;28;997;-54
2023/12/31 00:56:32;;;;;;;17.55;13.73;;;11.00;59.70;;;;;;349643;28;1149;-54
2023/12/31 00:56:43;;;;;;;17.05;13.70;;;11.00;59.60;;;;;;349622;28;992;-54
2023/12/31 00:56:53;;;;;;;16.42;13.07;;;11.00;59.60;;;;;;349612;28;1989;-54
2023/12/31 00:57:05;;;;;;;17.50;13.10;;;11.00;59.60;;;;;;349688;28;1067;-53